Heflin, Alabama
Current Conditions -  °F | °C
As of 2:42 AM on Sunday 23 Nov 2014 (Local Time) from KANB Reporting Station
Light Rain Light Rain  
Wind Chill: 53°   Ceiling: 1400
Heat Index: 53°   Visibility: 10mi
Dew Point: 50°   Wind: 10mph
Humidity: 89%   Direction: 70°ENE
Pressure: 30.02"   Gusts: NA
Location:  33.65°N, 85.59°W
Report Text: KANB 230842Z AUTO 07009KT 10SM -RA OVC014 12/10 A3002 RMK AO2 RAE0754B21 P0001 T01170100 $
Loading
Personal Weather Stations






























Interactive Weather Map New forecast layout! Learn more

10-Day Weather Forecast

Advertisements
Track Severe Weather on mobile